Time;durP1;ratioP1;P1;durP2;ratioP2;P2;SDS_P1;SDS_P2;PMS_P1;PMS_P2;Temp;Humidity;BMP_temperature;BMP_pressure;BME280_temperature;BME280_humidity;BME280_pressure;Samples;Min_cycle;Max_cycle;Signal;HPM_P1;HPM_P2
2022/08/26 00:00:25;;;;;;;26.75;13.90;;;21.00;99.90;;;;;;5045895;28;20032;-86
2022/08/26 00:02:51;;;;;;;33.47;14.35;;;21.00;99.90;;;;;;5056447;28;20051;-86
2022/08/26 00:05:17;;;;;;;25.08;13.27;;;21.00;99.90;;;;;;5060267;28;20040;-85
2022/08/26 00:07:43;;;;;;;27.13;14.32;;;21.00;99.90;;;;;;5060227;28;20032;-85
2022/08/26 00:10:09;;;;;;;27.63;13.43;;;21.00;99.90;;;;;;5060812;28;20018;-83
2022/08/26 00:12:34;;;;;;;26.48;13.82;;;21.00;99.90;;;;;;5060545;28;20112;-85
2022/08/26 00:15:00;;;;;;;27.33;13.60;;;21.00;99.90;;;;;;5060118;28;20026;-84
2022/08/26 00:17:27;;;;;;;29.77;13.88;;;20.90;99.90;;;;;;5057021;28;20041;-84
2022/08/26 00:19:52;;;;;;;22.50;14.15;;;20.90;99.90;;;;;;5054217;28;20036;-86
2022/08/26 00:22:18;;;;;;;20.17;12.57;;;20.90;99.90;;;;;;5059677;28;20022;-85
2022/08/26 00:24:44;;;;;;;21.55;13.45;;;20.90;99.90;;;;;;5060502;28;20034;-85
2022/08/26 00:27:10;;;;;;;28.63;14.43;;;20.80;99.90;;;;;;5059917;28;20021;-84
2022/08/26 00:29:36;;;;;;;18.92;11.65;;;20.80;99.90;;;;;;5058726;28;20097;-86
2022/08/26 00:32:02;;;;;;;23.40;11.23;;;20.80;99.90;;;;;;5060024;28;20020;-86
2022/08/26 00:34:28;;;;;;;18.83;11.63;;;20.80;99.90;;;;;;5059881;28;20030;-85
2022/08/26 00:36:54;;;;;;;22.65;12.73;;;20.70;99.90;;;;;;5059747;28;20060;-85
2022/08/26 00:39:20;;;;;;;23.67;12.00;;;20.70;99.90;;;;;;5059325;28;20068;-86
2022/08/26 00:41:46;;;;;;;23.83;12.50;;;20.60;99.90;;;;;;5060019;28;20412;-85
2022/08/26 00:44:12;;;;;;;18.63;12.32;;;20.60;99.90;;;;;;5060539;28;20021;-85
2022/08/26 00:46:42;;;;;;;19.45;12.88;;;20.60;99.90;;;;;;5060481;28;20022;-85
2022/08/26 00:49:14;;;;;;;23.52;12.45;;;20.60;99.90;;;;;;5058228;28;20105;-87
2022/08/26 00:51:49;;;;;;;24.95;13.38;;;20.60;99.90;;;;;;5053680;28;20035;-87
2022/08/26 00:54:18;;;;;;;21.52;12.65;;;20.60;99.90;;;;;;5055537;28;20030;-85
2022/08/26 00:56:56;;;;;;;21.63;12.65;;;20.50;99.90;;;;;;5047026;28;20358;-87
2022/08/26 00:59:24;;;;;;;22.52;12.57;;;20.60;99.90;;;;;;5044849;28;20397;-85
2022/08/26 01:01:50;;;;;;;20.93;11.50;;;20.50;99.90;;;;;;5068110;22;20025;-79
2022/08/26 01:04:19;;;;;;;27.98;12.20;;;20.50;99.90;;;;;;5056469;28;20123;-79
2022/08/26 01:06:48;;;;;;;19.27;11.88;;;20.50;99.90;;;;;;5056696;28;20472;-81
2022/08/26 01:09:15;;;;;;;16.02;10.63;;;20.50;99.90;;;;;;5063067;28;20021;-79
2022/08/26 01:11:41;;;;;;;24.33;11.27;;;20.50;99.90;;;;;;5064949;28;20032;-80
2022/08/26 01:14:11;;;;;;;15.95;10.60;;;20.50;99.90;;;;;;5057143;28;20073;-79
2022/08/26 01:16:37;;;;;;;20.08;10.60;;;20.50;99.90;;;;;;5057512;28;20094;-80
2022/08/26 01:19:22;;;;;;;19.67;10.93;;;20.50;99.90;;;;;;5056045;28;20021;-80
2022/08/26 01:21:55;;;;;;;;;;;20.50;99.90;;;;;;5055954;28;20033;-80
2022/08/26 01:24:21;;;;;;;15.15;9.85;;;20.50;99.90;;;;;;5064075;28;19916;-78
2022/08/26 01:26:47;;;;;;;18.30;10.07;;;20.50;99.90;;;;;;5063904;28;20583;-79
2022/08/26 01:29:18;;;;;;;19.77;9.48;;;20.50;99.90;;;;;;5056873;28;20394;-78
2022/08/26 01:31:51;;;;;;;13.43;9.80;;;20.50;99.90;;;;;;5057490;28;20041;-79
2022/08/26 01:34:36;;;;;;;16.10;8.73;;;20.50;99.90;;;;;;5055951;28;20032;-80
2022/08/26 01:37:31;;;;;;;18.17;9.52;;;20.40;99.90;;;;;;5056368;28;20029;-81
2022/08/26 01:39:57;;;;;;;23.30;9.32;;;20.40;99.90;;;;;;5056379;28;20394;-80
2022/08/26 01:42:25;;;;;;;17.08;9.68;;;20.40;99.90;;;;;;5057106;28;20021;-81
2022/08/26 01:44:58;;;;;;;14.52;9.13;;;20.40;99.90;;;;;;5056366;28;20032;-81
2022/08/26 01:47:26;;;;;;;19.00;9.35;;;20.40;99.90;;;;;;5056490;28;20059;-80
2022/08/26 01:49:54;;;;;;;16.65;9.65;;;20.40;99.90;;;;;;5055800;28;20139;-80
2022/08/26 01:52:23;;;;;;;19.98;10.02;;;20.30;99.90;;;;;;5055935;28;20037;-80
2022/08/26 01:54:51;;;;;;;17.10;9.40;;;20.30;99.90;;;;;;5057285;28;20028;-79
2022/08/26 01:57:19;;;;;;;15.43;8.45;;;20.40;99.90;;;;;;5060091;28;20491;-79
2022/08/26 01:59:45;;;;;;;16.23;8.65;;;20.40;99.90;;;;;;5055232;28;20448;-80
2022/08/26 02:02:12;;;;;;;15.75;8.60;;;20.50;99.90;;;;;;5056500;28;20104;-79
2022/08/26 02:04:48;;;;;;;16.15;8.82;;;20.60;99.90;;;;;;5057773;28;20036;-81
2022/08/26 02:07:16;;;;;;;12.82;8.52;;;20.70;99.90;;;;;;5065458;28;20043;-81
2022/08/26 02:09:42;;;;;;;14.10;8.15;;;20.70;99.90;;;;;;5063340;28;20119;-79
2022/08/26 02:12:10;;;;;;;14.57;7.88;;;20.70;99.90;;;;;;5070018;28;20063;-81
2022/08/26 02:14:41;;;;;;;13.80;8.07;;;20.70;99.90;;;;;;5064163;28;20029;-80
2022/08/26 02:17:09;;;;;;;9.63;7.53;;;20.70;99.90;;;;;;5071109;28;20093;-79
2022/08/26 02:19:39;;;;;;;13.73;7.40;;;20.60;99.90;;;;;;5066924;28;20055;-79
2022/08/26 02:22:12;;;;;;;21.75;8.55;;;20.50;99.90;;;;;;5056831;28;20028;-80
2022/08/26 02:24:54;;;;;;;13.38;8.18;;;20.40;99.90;;;;;;5054320;28;20071;-80
2022/08/26 02:27:27;;;;;;;19.40;9.60;;;20.20;99.90;;;;;;5054709;28;20100;-80
2022/08/26 02:29:59;;;;;;;20.67;9.80;;;20.20;99.90;;;;;;5057833;28;20031;-79
2022/08/26 02:32:24;;;;;;;22.23;9.70;;;20.00;99.90;;;;;;5057363;28;20412;-79
2022/08/26 02:34:50;;;;;;;19.23;9.02;;;20.00;99.90;;;;;;5057177;28;20029;-81
2022/08/26 02:37:16;;;;;;;13.13;9.05;;;19.90;99.90;;;;;;5057519;28;20090;-80
2022/08/26 02:39:43;;;;;;;15.85;9.75;;;20.10;99.90;;;;;;5039592;28;20037;-79
2022/08/26 02:42:09;;;;;;;17.92;9.25;;;20.10;99.90;;;;;;5057949;28;20045;-78
2022/08/26 02:44:36;;;;;;;24.00;11.70;;;20.10;99.90;;;;;;5055369;28;20393;-80
2022/08/26 02:47:02;;;;;;;18.98;11.00;;;20.10;99.90;;;;;;5056400;28;20029;-79
2022/08/26 02:49:29;;;;;;;17.67;10.70;;;20.00;99.90;;;;;;5055853;28;20029;-79
2022/08/26 02:51:55;;;;;;;19.35;11.38;;;19.90;99.90;;;;;;5055875;28;20075;-78
2022/08/26 02:54:21;;;;;;;18.17;11.63;;;19.90;99.90;;;;;;5059373;28;20032;-79
2022/08/26 02:56:48;;;;;;;18.45;11.80;;;19.90;99.90;;;;;;5057537;28;20041;-80
2022/08/26 02:59:14;;;;;;;20.85;11.68;;;19.90;99.90;;;;;;5058852;28;20025;-80
2022/08/26 03:01:41;;;;;;;23.70;11.27;;;19.80;99.90;;;;;;5057653;28;20044;-79
2022/08/26 03:04:10;;;;;;;20.90;11.82;;;19.70;99.90;;;;;;5054878;28;20037;-79
2022/08/26 03:06:36;;;;;;;16.42;10.57;;;19.70;99.90;;;;;;5056010;28;20048;-79
2022/08/26 03:09:04;;;;;;;19.85;11.38;;;19.70;99.90;;;;;;5055803;28;20025;-79
2022/08/26 03:11:30;;;;;;;20.42;11.52;;;19.70;99.90;;;;;;5059726;28;20500;-82
2022/08/26 03:13:57;;;;;;;22.25;12.25;;;19.80;99.90;;;;;;5060452;28;20029;-80
2022/08/26 03:16:23;;;;;;;19.50;12.68;;;19.90;99.90;;;;;;5064097;28;20425;-79
2022/08/26 03:18:49;;;;;;;17.20;11.52;;;19.80;99.90;;;;;;5062479;28;20050;-79
2022/08/26 03:21:17;;;;;;;18.13;12.27;;;19.70;99.90;;;;;;5058659;28;20036;-79
2022/08/26 03:23:43;;;;;;;21.52;11.35;;;19.60;99.90;;;;;;5062575;28;20075;-79
2022/08/26 03:26:12;;;;;;;21.27;12.30;;;19.60;99.90;;;;;;5062070;28;20053;-80
2022/08/26 03:31:23;;;;;;;18.58;11.40;;;19.40;99.90;;;;;;5066266;28;20029;-79
2022/08/26 03:33:49;;;;;;;18.73;11.02;;;19.40;99.90;;;;;;5070445;28;20025;-78
2022/08/26 03:36:15;;;;;;;17.85;11.68;;;19.30;99.90;;;;;;5068205;28;20033;-79
2022/08/26 03:38:41;;;;;;;22.77;11.20;;;19.20;99.90;;;;;;5064256;28;20021;-80
2022/08/26 03:41:10;;;;;;;18.90;10.80;;;19.20;99.90;;;;;;5075417;28;20108;-79
2022/08/26 03:43:36;;;;;;;17.27;11.75;;;19.20;99.90;;;;;;5064157;28;20025;-79
2022/08/26 03:46:08;;;;;;;23.30;10.43;;;19.20;99.90;;;;;;5065114;28;20052;-80
2022/08/26 03:48:34;;;;;;;20.67;11.18;;;19.20;99.90;;;;;;5067144;28;20013;-80
2022/08/26 03:51:01;;;;;;;17.08;9.75;;;19.30;99.90;;;;;;5066727;28;20080;-80
2022/08/26 03:53:27;;;;;;;19.23;10.63;;;19.40;99.90;;;;;;5054994;28;20038;-79
2022/08/26 03:55:53;;;;;;;15.55;10.25;;;19.30;99.90;;;;;;5049124;28;20032;-81
2022/08/26 03:58:20;;;;;;;23.13;10.90;;;19.30;99.90;;;;;;5041216;28;20064;-80
2022/08/26 04:00:46;;;;;;;16.73;10.65;;;19.20;99.90;;;;;;5042403;28;20025;-81
2022/08/26 04:03:56;;;;;;;17.95;10.05;;;19.20;99.90;;;;;;5041840;28;20124;-80
2022/08/26 04:05:57;;;;;;;18.30;9.98;;;19.20;99.90;;;;;;5045143;28;20033;-80
2022/08/26 04:08:23;;;;;;;22.15;10.00;;;19.20;99.90;;;;;;5043564;28;20109;-80
2022/08/26 04:10:49;;;;;;;20.20;10.23;;;19.30;99.90;;;;;;5043887;28;20123;-81
2022/08/26 04:13:15;;;;;;;18.17;10.07;;;19.30;99.90;;;;;;5042679;28;20065;-79
2022/08/26 04:15:40;;;;;;;20.23;11.38;;;19.30;99.90;;;;;;5041715;28;20033;-80
2022/08/26 04:18:06;;;;;;;19.20;11.52;;;19.40;99.90;;;;;;5044101;28;20056;-79
2022/08/26 04:20:32;;;;;;;21.08;11.65;;;19.40;99.90;;;;;;5044000;28;20028;-78
2022/08/26 04:22:58;;;;;;;19.55;12.18;;;19.40;99.90;;;;;;5039855;28;20512;-78
2022/08/26 04:25:23;;;;;;;18.65;11.68;;;19.30;99.90;;;;;;5037869;28;20431;-80
2022/08/26 04:27:49;;;;;;;19.75;11.73;;;19.30;99.90;;;;;;5037511;28;20029;-79
2022/08/26 04:30:15;;;;;;;24.30;12.43;;;19.20;99.90;;;;;;5038750;28;20164;-80
2022/08/26 04:32:41;;;;;;;20.70;11.75;;;19.20;99.90;;;;;;5038468;28;20045;-80
2022/08/26 04:35:07;;;;;;;21.33;12.25;;;19.20;99.90;;;;;;5043340;28;20037;-79
2022/08/26 04:37:33;;;;;;;19.42;11.73;;;19.30;99.90;;;;;;5045526;28;20020;-80
2022/08/26 04:39:58;;;;;;;29.38;11.43;;;19.30;99.90;;;;;;5037044;28;20018;-78
2022/08/26 04:42:24;;;;;;;24.80;11.13;;;19.40;99.90;;;;;;5038199;28;20375;-79
2022/08/26 04:44:50;;;;;;;15.63;11.07;;;19.50;99.90;;;;;;5038257;28;20473;-77
2022/08/26 04:47:16;;;;;;;21.92;11.85;;;19.60;99.90;;;;;;5038817;28;20478;-81
2022/08/26 04:49:42;;;;;;;20.13;12.05;;;19.60;99.90;;;;;;5038853;28;20032;-79
2022/08/26 04:52:08;;;;;;;19.38;12.13;;;19.70;99.90;;;;;;5037166;28;20060;-77
2022/08/26 04:54:34;;;;;;;23.30;12.68;;;19.80;99.90;;;;;;5038038;28;20079;-80
2022/08/26 04:56:59;;;;;;;19.25;12.27;;;19.70;99.90;;;;;;5042456;28;20097;-79
2022/08/26 04:59:25;;;;;;;23.50;12.05;;;19.80;99.90;;;;;;5047372;28;20033;-79
2022/08/26 05:01:55;;;;;;;26.27;13.27;;;19.80;99.90;;;;;;5037597;28;20092;-79
2022/08/26 05:04:20;;;;;;;25.23;12.27;;;19.90;99.90;;;;;;5038070;28;20049;-80
2022/08/26 05:06:47;;;;;;;20.90;12.02;;;20.00;99.90;;;;;;5037326;28;20408;-81
2022/08/26 05:09:13;;;;;;;19.52;12.30;;;20.00;99.90;;;;;;5049720;28;20068;-80
2022/08/26 05:11:39;;;;;;;18.65;11.85;;;20.10;99.90;;;;;;5040594;28;20100;-79
2022/08/26 05:14:05;;;;;;;21.38;12.10;;;20.10;99.90;;;;;;5040856;28;20073;-78
2022/08/26 05:16:32;;;;;;;22.45;12.65;;;20.10;99.90;;;;;;5043247;28;20029;-79
2022/08/26 05:18:57;;;;;;;24.58;12.63;;;20.10;99.90;;;;;;5045182;28;20120;-80
2022/08/26 05:21:25;;;;;;;29.10;12.93;;;20.20;99.90;;;;;;5045269;28;20021;-80
2022/08/26 05:23:53;;;;;;;25.40;13.43;;;20.30;99.90;;;;;;5041784;28;20048;-80
2022/08/26 05:26:20;;;;;;;21.25;12.25;;;20.30;99.90;;;;;;5042730;28;20021;-79
2022/08/26 05:28:46;;;;;;;19.45;11.65;;;20.30;99.90;;;;;;5048505;28;20028;-79
2022/08/26 05:31:19;;;;;;;21.50;12.10;;;20.40;99.90;;;;;;5062066;28;20024;-79
2022/08/26 05:33:45;;;;;;;22.33;12.13;;;20.50;99.90;;;;;;5062884;28;20024;-80
2022/08/26 05:36:17;;;;;;;21.45;11.98;;;20.60;99.90;;;;;;5059253;28;20045;-79
2022/08/26 05:38:44;;;;;;;27.77;12.68;;;20.80;99.90;;;;;;5053536;28;20026;-80
2022/08/26 05:41:20;;;;;;;23.25;11.68;;;20.90;99.90;;;;;;5054050;28;20093;-79
2022/08/26 05:43:46;;;;;;;21.58;11.32;;;21.00;99.90;;;;;;5054100;28;20315;-79
2022/08/26 05:46:12;;;;;;;22.13;12.00;;;21.10;99.90;;;;;;5054878;28;20025;-79
2022/08/26 05:48:39;;;;;;;23.25;11.52;;;21.20;99.90;;;;;;5051688;28;20028;-79
2022/08/26 05:51:07;;;;;;;25.23;12.57;;;21.30;99.90;;;;;;5053912;28;20033;-80
2022/08/26 05:53:34;;;;;;;24.48;11.85;;;21.30;99.90;;;;;;5046421;28;20429;-79
2022/08/26 05:56:02;;;;;;;21.60;11.93;;;21.40;99.90;;;;;;5045693;28;20025;-79
2022/08/26 05:58:28;;;;;;;29.45;12.68;;;21.50;99.90;;;;;;5045412;28;20109;-79
2022/08/26 06:01:02;;;;;;;17.67;11.00;;;21.60;99.90;;;;;;5048732;28;20073;-80
2022/08/26 06:03:29;;;;;;;23.98;11.90;;;21.70;99.90;;;;;;5051339;28;20032;-81
2022/08/26 06:05:55;;;;;;;18.33;11.80;;;21.80;99.90;;;;;;5053234;28;20021;-81
2022/08/26 06:08:21;;;;;;;24.48;11.88;;;21.90;99.90;;;;;;5052348;28;20039;-81
2022/08/26 06:10:51;;;;;;;20.77;11.32;;;22.10;99.90;;;;;;5052973;28;20026;-79
2022/08/26 06:13:25;;;;;;;19.25;11.45;;;22.20;99.90;;;;;;5051255;28;20161;-80
2022/08/26 06:15:52;;;;;;;25.58;11.70;;;22.40;99.90;;;;;;5051613;28;20075;-82
2022/08/26 06:18:26;;;;;;;23.52;11.25;;;22.50;99.90;;;;;;5052023;28;20095;-80
2022/08/26 06:20:53;;;;;;;20.85;11.55;;;22.60;99.90;;;;;;5061341;28;20068;-79
2022/08/26 06:26:04;;;;;;;26.63;12.85;;;22.80;99.90;;;;;;5067403;28;20144;-83
2022/08/26 06:28:31;;;;;;;23.17;12.32;;;22.90;99.90;;;;;;5062247;28;20051;-79
2022/08/26 06:30:57;;;;;;;27.17;12.93;;;23.00;99.90;;;;;;5067646;28;20091;-80
2022/08/26 06:33:23;;;;;;;28.60;12.90;;;23.10;99.90;;;;;;5066054;28;20036;-80
2022/08/26 06:35:52;;;;;;;25.90;11.93;;;23.30;99.90;;;;;;5062243;28;20029;-80
2022/08/26 06:38:18;;;;;;;27.40;13.18;;;23.40;99.90;;;;;;5069751;28;20073;-80
2022/08/26 06:40:49;;;;;;;27.75;12.95;;;23.60;99.90;;;;;;5062835;28;20025;-79
2022/08/26 06:43:21;;;;;;;25.10;15.02;;;23.60;99.90;;;;;;5061844;28;20029;-79
2022/08/26 06:45:47;;;;;;;22.40;13.65;;;23.70;99.90;;;;;;5061935;28;20341;-80
2022/08/26 06:48:15;;;;;;;27.35;13.32;;;23.80;99.90;;;;;;5062866;28;20135;-81
2022/08/26 06:50:41;;;;;;;28.85;14.95;;;23.80;99.90;;;;;;5055087;28;20480;-81
2022/08/26 06:53:09;;;;;;;25.35;14.73;;;23.90;99.90;;;;;;5036449;28;20025;-81
2022/08/26 06:55:44;;;;;;;24.90;13.05;;;23.90;99.90;;;;;;5043975;28;20017;-84
2022/08/26 06:58:11;;;;;;;29.63;14.02;;;24.00;99.90;;;;;;5045323;28;20045;-81
2022/08/26 07:00:37;;;;;;;30.40;16.50;;;24.00;99.90;;;;;;5055077;28;20057;-82
2022/08/26 07:03:05;;;;;;;36.38;15.50;;;24.20;99.90;;;;;;5070086;22;20033;-84
2022/08/26 07:05:32;;;;;;;32.80;14.98;;;24.30;99.90;;;;;;5085212;28;20040;-84
2022/08/26 07:07:58;;;;;;;25.38;14.00;;;24.30;99.90;;;;;;5074317;28;20038;-85
2022/08/26 07:10:25;;;;;;;29.10;15.35;;;24.40;99.90;;;;;;5076187;28;20031;-84
2022/08/26 07:12:52;;;;;;;38.85;17.63;;;24.40;99.90;;;;;;5065496;28;20027;-85
2022/08/26 07:15:18;;;;;;;23.25;14.32;;;24.50;99.90;;;;;;5077244;28;20032;-86
2022/08/26 07:17:44;;;;;;;40.33;17.02;;;24.60;99.90;;;;;;5076862;28;20149;-85
2022/08/26 07:20:10;;;;;;;30.65;16.20;;;24.80;99.90;;;;;;5092209;28;20016;-84
2022/08/26 07:22:39;;;;;;;32.63;16.02;;;25.00;99.90;;;;;;5096758;28;20036;-85
2022/08/26 07:25:07;;;;;;;32.97;15.82;;;25.20;99.90;;;;;;5097624;28;20017;-84
2022/08/26 07:27:37;;;;;;;37.95;16.33;;;25.30;99.90;;;;;;5096295;28;20036;-86
2022/08/26 07:30:05;;;;;;;37.83;17.77;;;25.40;99.90;;;;;;5095583;28;20036;-88
2022/08/26 07:32:31;;;;;;;35.40;17.58;;;25.40;99.90;;;;;;5096350;28;20025;-87
2022/08/26 07:34:58;;;;;;;33.50;16.63;;;25.50;99.90;;;;;;5093350;28;20040;-88
2022/08/26 07:37:24;;;;;;;28.58;15.82;;;25.60;99.90;;;;;;5091402;28;20111;-86
2022/08/26 07:39:50;;;;;;;35.38;16.30;;;25.70;99.90;;;;;;5093442;28;20028;-86
2022/08/26 07:42:17;;;;;;;34.88;16.88;;;25.80;99.90;;;;;;5092644;28;20032;-88
2022/08/26 07:44:44;;;;;;;33.97;17.98;;;25.70;99.90;;;;;;5071748;28;20074;-87
2022/08/26 07:47:11;;;;;;;34.75;17.45;;;25.60;99.90;;;;;;5071358;28;20036;-88
2022/08/26 07:49:37;;;;;;;37.35;17.30;;;25.60;99.90;;;;;;5072338;28;20150;-89
2022/08/26 07:52:04;;;;;;;41.67;17.17;;;25.60;99.90;;;;;;5073846;28;20029;-85
2022/08/26 07:54:30;;;;;;;36.00;16.98;;;25.60;99.90;;;;;;5073067;28;20465;-87
2022/08/26 07:56:57;;;;;;;36.63;16.70;;;25.60;99.90;;;;;;5073983;28;20025;-88
2022/08/26 07:59:23;;;;;;;37.38;17.42;;;25.70;99.90;;;;;;5073821;28;20033;-87
2022/08/26 08:01:49;;;;;;;31.98;16.42;;;25.70;99.90;;;;;;5073708;28;20081;-87
2022/08/26 08:04:17;;;;;;;35.42;17.42;;;25.80;99.90;;;;;;5053691;28;20036;-87
2022/08/26 08:06:44;;;;;;;35.35;16.00;;;26.00;99.90;;;;;;5068433;28;20017;-88
2022/08/26 08:09:12;;;;;;;33.00;14.18;;;26.10;99.90;;;;;;5066418;28;20033;-87
2022/08/26 08:11:38;;;;;;;30.67;14.73;;;26.20;99.90;;;;;;5067296;28;20025;-88
2022/08/26 08:14:04;;;;;;;26.40;14.02;;;26.40;99.90;;;;;;5065746;28;20515;-87
2022/08/26 08:16:29;;;;;;;25.45;14.60;;;26.60;99.90;;;;;;5066316;28;20026;-88
2022/08/26 08:18:55;;;;;;;33.55;14.43;;;26.70;99.90;;;;;;5051919;28;20017;-86
2022/08/26 08:21:23;;;;;;;28.52;13.85;;;26.70;99.90;;;;;;5070282;28;20029;-88
2022/08/26 08:23:51;;;;;;;30.63;14.93;;;26.60;99.90;;;;;;5070316;28;20044;-89
2022/08/26 08:26:17;;;;;;;41.03;16.70;;;26.70;99.90;;;;;;5070971;28;20029;-91
2022/08/26 08:28:43;;;;;;;43.00;16.13;;;26.70;99.90;;;;;;5073951;28;20036;-87
2022/08/26 08:31:10;;;;;;;30.83;15.02;;;26.70;99.90;;;;;;5072338;28;20025;-90
2022/08/26 08:33:36;;;;;;;38.30;14.50;;;26.70;99.90;;;;;;5072277;28;20385;-88
2022/08/26 08:36:05;;;;;;;27.23;14.10;;;26.80;99.90;;;;;;5073496;28;20040;-90
2022/08/26 08:38:31;;;;;;;36.60;14.25;;;27.10;99.90;;;;;;5075448;28;20036;-88
2022/08/26 08:40:57;;;;;;;29.25;13.68;;;27.30;99.90;;;;;;5077175;28;20020;-88
2022/08/26 08:43:31;;;;;;;29.48;13.30;;;27.50;99.90;;;;;;5075679;28;20028;-89
2022/08/26 08:46:05;;;;;;;25.98;11.90;;;27.30;99.90;;;;;;5077804;28;20025;-86
2022/08/26 08:48:35;;;;;;;23.27;11.73;;;27.30;99.90;;;;;;5077664;28;20021;-85
2022/08/26 08:51:08;;;;;;;25.20;11.35;;;27.50;99.90;;;;;;5071649;28;20032;-88
2022/08/26 08:53:54;;;;;;;32.47;11.25;;;27.60;99.90;;;;;;5073277;28;20017;-89
2022/08/26 08:56:32;;;;;;;22.38;11.40;;;27.60;99.90;;;;;;5072800;28;20033;-87
2022/08/26 08:59:23;;;;;;;25.92;11.52;;;27.80;99.90;;;;;;5074049;28;20013;-87
2022/08/26 09:02:17;;;;;;;25.42;12.25;;;27.80;99.90;;;;;;5071741;28;20046;-87
2022/08/26 09:04:58;;;;;;;33.72;12.02;;;27.90;99.90;;;;;;5075151;28;20402;-87
2022/08/26 09:07:37;;;;;;;28.10;11.50;;;28.00;99.90;;;;;;5077680;28;20025;-85
2022/08/26 09:10:29;;;;;;;23.17;12.32;;;28.10;99.90;;;;;;5074476;28;20024;-88
2022/08/26 09:12:56;;;;;;;26.95;12.02;;;28.20;99.90;;;;;;5074944;28;20088;-88
2022/08/26 09:15:32;;;;;;;24.05;12.10;;;28.20;99.90;;;;;;5074467;28;20116;-88
2022/08/26 09:18:43;;;;;;;22.90;10.77;;;28.40;99.90;;;;;;5073866;28;20009;-87
2022/08/26 09:21:11;;;;;;;18.45;10.18;;;28.90;99.90;;;;;;5045504;28;20022;-88
2022/08/26 09:23:40;;;;;;;23.02;10.18;;;29.60;99.90;;;;;;5054570;28;20013;-86
2022/08/26 09:26:14;;;;;;;18.73;8.90;;;30.30;99.90;;;;;;5053709;28;20117;-88
2022/08/26 09:28:46;;;;;;;22.08;8.07;;;31.00;99.90;;;;;;5067533;28;20024;-88
2022/08/26 09:31:33;;;;;;;21.00;8.15;;;31.70;99.90;;;;;;5074816;28;20894;-89
2022/08/26 09:34:19;;;;;;;20.77;9.25;;;32.20;98.90;;;;;;5076061;28;20020;-87
2022/08/26 09:36:52;;;;;;;23.23;7.50;;;33.10;97.00;;;;;;5058284;28;20044;-89
2022/08/26 09:39:26;;;;;;;18.83;7.03;;;33.10;96.30;;;;;;5077553;28;20085;-86
2022/08/26 09:42:04;;;;;;;18.92;7.43;;;33.10;95.50;;;;;;5079267;28;20037;-87
2022/08/26 09:44:31;;;;;;;11.63;6.38;;;33.70;94.80;;;;;;5077289;28;20032;-90
2022/08/26 09:47:02;;;;;;;15.38;7.18;;;34.40;93.90;;;;;;5075204;28;20039;-88
2022/08/26 09:49:35;;;;;;;14.65;7.00;;;36.20;91.50;;;;;;5075572;28;20029;-88
2022/08/26 09:52:12;;;;;;;17.48;7.43;;;37.30;89.00;;;;;;5078377;28;20095;-87
2022/08/26 09:54:39;;;;;;;17.60;7.30;;;37.90;84.10;;;;;;5075974;28;20037;-88
2022/08/26 09:57:13;;;;;;;19.08;6.53;;;38.20;81.80;;;;;;5072990;28;20021;-86
2022/08/26 09:59:39;;;;;;;15.02;6.00;;;39.00;78.70;;;;;;5077178;28;20028;-86
2022/08/26 10:02:23;;;;;;;17.02;6.30;;;39.20;74.80;;;;;;5061011;28;20051;-87
2022/08/26 10:04:53;;;;;;;11.77;5.90;;;40.20;73.70;;;;;;5077779;28;20063;-86
2022/08/26 10:07:40;;;;;;;13.70;6.40;;;40.60;72.00;;;;;;5075052;28;20035;-88
2022/08/26 10:10:16;;;;;;;15.55;7.53;;;40.10;71.20;;;;;;5073972;28;20051;-88
2022/08/26 10:12:53;;;;;;;15.32;6.80;;;40.10;71.50;;;;;;5071179;28;20083;-87
2022/08/26 10:15:20;;;;;;;13.73;6.47;;;41.00;70.30;;;;;;5072063;28;20033;-85
2022/08/26 10:18:05;;;;;;;12.90;5.80;;;42.00;68.10;;;;;;5071011;28;20016;-87
2022/08/26 10:20:48;;;;;;;14.27;6.15;;;42.80;65.80;;;;;;5071670;28;20029;-84
2022/08/26 10:23:18;;;;;;;10.43;5.32;;;43.60;63.90;;;;;;5073467;28;20059;-86
2022/08/26 10:25:46;;;;;;;14.20;5.93;;;44.00;62.30;;;;;;5074820;28;20025;-86
2022/08/26 10:28:30;;;;;;;15.48;5.47;;;43.60;61.40;;;;;;5072096;28;20036;-87
2022/08/26 10:31:06;;;;;;;7.93;5.47;;;42.90;61.80;;;;;;5072636;28;20040;-88
2022/08/26 10:33:32;;;;;;;20.92;6.65;;;43.20;61.30;;;;;;5071217;28;20032;-87
2022/08/26 10:36:04;;;;;;;17.75;6.20;;;43.60;59.80;;;;;;5069603;28;20025;-87
2022/08/26 10:38:39;;;;;;;15.00;6.67;;;43.50;60.20;;;;;;5069268;28;20025;-86
2022/08/26 10:41:08;;;;;;;16.92;6.00;;;42.80;59.90;;;;;;5072200;28;20314;-86
2022/08/26 10:43:49;;;;;;;13.20;5.65;;;42.70;60.20;;;;;;5072395;28;20024;-86
2022/08/26 10:46:22;;;;;;;17.00;6.32;;;42.10;60.10;;;;;;5071527;28;20013;-86
2022/08/26 10:49:04;;;;;;;16.25;5.80;;;41.40;60.70;;;;;;5073062;28;20132;-86
2022/08/26 10:51:40;;;;;;;13.38;6.13;;;41.40;60.90;;;;;;5061714;28;20059;-88
2022/08/26 10:54:18;;;;;;;9.57;5.82;;;41.70;60.40;;;;;;5065506;28;20041;-87
2022/08/26 10:57:28;;;;;;;15.18;5.88;;;41.60;60.30;;;;;;5068370;28;20106;-88
2022/08/26 11:03:17;;;;;;;18.13;7.00;;;39.40;62.30;;;;;;5041142;28;20043;-86
2022/08/26 11:05:44;;;;;;;11.65;6.82;;;39.10;62.90;;;;;;5054558;28;20056;-88
2022/08/26 11:08:18;;;;;;;15.00;5.95;;;39.30;63.50;;;;;;5055751;28;20036;-87
2022/08/26 11:10:50;;;;;;;15.77;6.78;;;40.00;62.90;;;;;;5052896;28;20025;-87
2022/08/26 11:13:16;;;;;;;15.77;6.82;;;40.80;61.20;;;;;;5050648;28;20084;-88
2022/08/26 11:15:42;;;;;;;12.98;6.32;;;41.40;60.50;;;;;;5050328;28;20033;-87
2022/08/26 11:18:12;;;;;;;17.27;6.57;;;41.60;60.30;;;;;;5052790;28;20026;-87
2022/08/26 11:20:39;;;;;;;12.88;5.95;;;42.00;58.90;;;;;;5051409;28;20028;-87
2022/08/26 11:23:25;;;;;;;18.88;6.85;;;42.60;59.30;;;;;;5051546;28;20044;-88
2022/08/26 11:25:57;;;;;;;15.98;6.70;;;42.50;57.90;;;;;;5052417;28;20063;-86
2022/08/26 11:28:50;;;;;;;16.27;7.35;;;41.40;58.60;;;;;;5051997;28;20033;-86
2022/08/26 11:31:25;;;;;;;14.35;6.47;;;41.30;59.50;;;;;;5052462;28;20026;-86
2022/08/26 11:33:58;;;;;;;12.95;6.22;;;43.40;58.20;;;;;;5053233;28;20022;-85
2022/08/26 11:36:45;;;;;;;16.83;6.30;;;44.50;56.60;;;;;;5059567;28;20033;-85
2022/08/26 11:39:24;;;;;;;16.45;6.45;;;45.20;55.80;;;;;;5071359;28;20113;-86
2022/08/26 11:41:52;;;;;;;18.48;6.10;;;46.30;54.60;;;;;;5075446;28;20021;-85
2022/08/26 11:44:21;;;;;;;15.45;6.10;;;46.20;53.20;;;;;;5075234;28;20009;-84
2022/08/26 11:46:58;;;;;;;16.52;6.68;;;46.10;53.60;;;;;;5074545;28;20067;-86
2022/08/26 11:49:27;;;;;;;15.48;6.38;;;46.30;53.30;;;;;;5076085;28;20571;-85
2022/08/26 11:52:07;;;;;;;13.20;5.95;;;46.50;53.00;;;;;;5079094;28;20129;-86
2022/08/26 11:54:34;;;;;;;21.65;6.50;;;46.60;52.40;;;;;;5078123;28;20029;-84
2022/08/26 11:57:00;;;;;;;18.08;6.20;;;46.90;52.10;;;;;;5077650;28;20044;-88
2022/08/26 11:59:35;;;;;;;13.82;6.15;;;47.00;52.10;;;;;;5074826;28;20029;-88
2022/08/26 12:02:01;;;;;;;13.68;5.90;;;47.30;51.60;;;;;;5077018;28;20033;-83
2022/08/26 12:04:38;;;;;;;16.67;5.88;;;47.30;51.60;;;;;;5077611;28;20079;-85
2022/08/26 12:07:07;;;;;;;12.90;6.10;;;46.80;51.40;;;;;;5075854;28;20093;-85
2022/08/26 12:09:35;;;;;;;14.70;6.32;;;46.80;51.40;;;;;;5076395;28;20025;-84
2022/08/26 12:12:14;;;;;;;15.18;6.18;;;46.60;51.50;;;;;;5075838;28;20033;-86
2022/08/26 12:14:40;;;;;;;17.40;6.00;;;46.40;51.60;;;;;;5054773;28;20029;-87
2022/08/26 12:17:13;;;;;;;12.35;6.18;;;46.70;51.30;;;;;;5054679;28;20025;-87
2022/08/26 12:19:40;;;;;;;16.05;6.45;;;47.80;50.80;;;;;;5053589;28;20029;-87
2022/08/26 12:22:22;;;;;;;13.25;6.78;;;47.60;51.50;;;;;;5052744;28;20051;-85
2022/08/26 12:24:51;;;;;;;13.73;6.40;;;47.20;50.70;;;;;;5055185;28;20045;-86
2022/08/26 12:27:25;;;;;;;13.13;5.80;;;47.50;50.40;;;;;;5054949;28;20025;-86
2022/08/26 12:30:01;;;;;;;15.52;5.80;;;47.70;49.80;;;;;;5066845;28;20149;-85
2022/08/26 12:32:30;;;;;;;13.32;5.72;;;48.00;49.20;;;;;;5075163;28;20048;-85
2022/08/26 12:35:06;;;;;;;15.05;5.55;;;47.30;49.30;;;;;;5071520;28;20131;-86
2022/08/26 12:37:36;;;;;;;13.70;6.35;;;46.60;49.80;;;;;;5077934;28;20069;-86
2022/08/26 12:40:29;;;;;;;19.48;5.55;;;46.70;49.60;;;;;;5078770;28;20017;-86
2022/08/26 12:43:01;;;;;;;11.60;5.47;;;48.00;48.90;;;;;;5060837;28;20029;-86
2022/08/26 12:45:30;;;;;;;13.50;5.03;;;48.80;48.00;;;;;;5078127;28;20041;-85
2022/08/26 12:48:00;;;;;;;11.90;4.85;;;48.70;47.70;;;;;;5076051;28;20191;-85
2022/08/26 12:50:33;;;;;;;12.00;4.85;;;49.00;47.30;;;;;;5077863;28;20037;-85
2022/08/26 12:53:19;;;;;;;15.32;4.93;;;49.00;46.80;;;;;;5076963;28;20028;-87